Time;durP1;ratioP1;P1;durP2;ratioP2;P2;SDS_P1;SDS_P2;PMS_P1;PMS_P2;Temp;Humidity;BMP_temperature;BMP_pressure;BME280_temperature;BME280_humidity;BME280_pressure;Samples;Min_cycle;Max_cycle;Signal;HPM_P1;HPM_P2
2024/04/08 00:01:52;;;;;;;2.47;0.88;;;;;;;;;;4906865;28;95120;-84
2024/04/08 00:04:28;;;;;;;1.83;0.95;;;;;;;;;;4906492;28;92109;-86
2024/04/08 00:06:57;;;;;;;2.47;1.00;;;;;;;;;;4920837;28;92475;-85
2024/04/08 00:09:38;;;;;;;1.42;1.00;;;;;;;;;;4884597;28;92531;-84
2024/04/08 00:12:16;;;;;;;2.05;0.98;;;;;;;;;;4888977;28;95972;-84
2024/04/08 00:14:52;;;;;;;2.45;0.98;;;;;;;;;;4905618;28;93072;-84
2024/04/08 00:17:17;;;;;;;0.85;0.60;;;;;;;;;;4906070;28;92071;-84
2024/04/08 00:19:43;;;;;;;1.67;0.95;;;;;;;;;;4873534;28;94943;-85
2024/04/08 00:22:09;;;;;;;2.25;0.90;;;;;;;;;;4916188;28;93291;-85
2024/04/08 00:24:39;;;;;;;2.30;1.00;;;;;;;;;;4908132;28;96298;-86
2024/04/08 00:27:08;;;;;;;1.95;0.80;;;;;;;;;;4891891;28;94779;-84
2024/04/08 00:29:44;;;;;;;1.35;0.73;;;;;;;;;;4917154;28;92591;-85
2024/04/08 00:32:13;;;;;;;1.40;0.80;;;;;;;;;;4908305;28;95624;-83
2024/04/08 00:34:56;;;;;;;2.17;0.90;;;;;;;;;;4923235;28;92967;-87
2024/04/08 00:37:22;;;;;;;2.20;0.90;;;;;;;;;;4907948;28;92501;-86
2024/04/08 00:39:51;;;;;;;1.42;0.80;;;;;;;;;;4923546;28;94744;-85
2024/04/08 00:47:10;;;;;;;2.45;1.10;;;;;;;;;;5523935;25;84378;-84
2024/04/08 00:49:40;;;;;;;2.97;1.10;;;;;;;;;;5439200;25;85050;-86
2024/04/08 00:52:13;;;;;;;3.72;1.08;;;;;;;;;;5449887;25;85420;-84
2024/04/08 00:54:40;;;;;;;2.50;0.98;;;;;;;;;;5476887;25;85522;-84
2024/04/08 00:57:08;;;;;;;1.75;1.20;;;;;;;;;;5446009;25;89568;-85
2024/04/08 00:59:51;;;;;;;2.10;1.10;;;;;;;;;;5422218;25;86416;-83
2024/04/08 01:02:51;;;;;;;3.10;1.00;;;;;;;;;;5391376;25;86226;-84
2024/04/08 01:05:18;;;;;;;;;;;;;;;;;;5439798;25;86492;-84
2024/04/08 01:07:45;;;;;;;2.05;1.10;;;;;;;;;;5416804;25;87587;-85
2024/04/08 01:10:15;;;;;;;1.92;1.00;;;;;;;;;;5439768;26;85307;-84
2024/04/08 01:12:46;;;;;;;1.35;1.00;;;;;;;;;;5438270;26;92797;-85
2024/04/08 01:15:16;;;;;;;2.47;1.00;;;;;;;;;;5440672;26;85293;-85
2024/04/08 01:17:47;;;;;;;1.80;1.02;;;;;;;;;;5407644;25;87838;-84
2024/04/08 01:20:16;;;;;;;1.20;0.90;;;;;;;;;;5411206;26;87682;-84
2024/04/08 01:22:45;;;;;;;2.67;1.10;;;;;;;;;;5441029;25;85561;-84
2024/04/08 01:25:12;;;;;;;1.95;0.88;;;;;;;;;;5438856;26;85915;-84
2024/04/08 01:27:39;;;;;;;1.90;1.10;;;;;;;;;;5430637;25;87842;-84
2024/04/08 01:30:06;;;;;;;2.38;1.00;;;;;;;;;;5443703;25;86336;-85
2024/04/08 01:32:33;;;;;;;2.13;1.00;;;;;;;;;;5438112;25;86829;-84
2024/04/08 01:35:00;;;;;;;2.22;0.98;;;;;;;;;;5438876;26;87142;-83
2024/04/08 01:37:27;;;;;;;2.83;0.98;;;;;;;;;;5438915;26;85948;-84
2024/04/08 01:40:14;;;;;;;2.58;1.13;;;;;;;;;;5438253;25;87955;-84
2024/04/08 01:42:44;;;;;;;3.92;1.30;;;;;;;;;;5437064;26;86308;-83
2024/04/08 01:45:10;;;;;;;1.88;1.00;;;;;;;;;;5433922;25;88241;-83
2024/04/08 01:47:37;;;;;;;2.30;1.00;;;;;;;;;;5436039;25;87255;-84
2024/04/08 01:50:27;;;;;;;2.00;1.10;;;;;;;;;;5450102;25;86479;-84
2024/04/08 01:55:54;;;;;;;2.08;1.00;;;;;;;;;;5414238;25;88487;-84
2024/04/08 01:58:34;;;;;;;1.67;1.10;;;;;;;;;;5413713;25;87831;-84
2024/04/08 02:01:06;;;;;;;;;;;;;;;;;;5396006;26;85980;-83
2024/04/08 02:03:33;;;;;;;3.30;1.08;;;;;;;;;;5422589;25;87573;-83
2024/04/08 02:06:06;;;;;;;1.27;1.00;;;;;;;;;;5430229;25;85553;-85
2024/04/08 02:08:42;;;;;;;2.22;1.10;;;;;;;;;;5421828;25;85384;-84
2024/04/08 02:11:18;;;;;;;3.35;1.20;;;;;;;;;;5399976;25;86459;-84
2024/04/08 02:14:08;;;;;;;2.40;1.25;;;;;;;;;;5426796;25;92026;-84
2024/04/08 02:16:45;;;;;;;2.10;1.02;;;;;;;;;;5434513;25;86044;-83
2024/04/08 02:19:15;;;;;;;3.70;1.20;;;;;;;;;;5416659;25;86216;-85
2024/04/08 02:21:46;;;;;;;1.67;1.00;;;;;;;;;;5428330;25;85428;-87
2024/04/08 02:24:13;;;;;;;2.47;1.13;;;;;;;;;;5428534;25;87990;-84
2024/04/08 02:26:40;;;;;;;2.50;1.00;;;;;;;;;;5422743;26;85678;-84
2024/04/08 02:29:07;;;;;;;2.40;1.02;;;;;;;;;;5399149;26;86473;-83
2024/04/08 02:31:37;;;;;;;2.13;1.08;;;;;;;;;;5385610;26;88075;-83
2024/04/08 02:34:12;;;;;;;1.48;1.00;;;;;;;;;;5391252;25;87574;-84
2024/04/08 02:36:44;;;;;;;2.50;1.10;;;;;;;;;;5428217;25;86375;-84
2024/04/08 02:39:10;;;;;;;2.35;1.20;;;;;;;;;;5451157;25;88420;-83
2024/04/08 02:41:41;;;;;;;2.08;1.10;;;;;;;;;;5447010;25;85336;-85
2024/04/08 02:44:15;;;;;;;1.88;1.00;;;;;;;;;;5411633;25;85832;-84
2024/04/08 02:46:42;;;;;;;2.65;1.15;;;;;;;;;;5460421;25;85412;-85
2024/04/08 02:49:12;;;;;;;4.32;1.50;;;;;;;;;;5456813;25;86342;-85
2024/04/08 02:51:41;;;;;;;2.30;1.00;;;;;;;;;;5465553;25;85282;-85
2024/04/08 02:54:10;;;;;;;1.63;1.00;;;;;;;;;;5488024;25;86730;-84
2024/04/08 02:56:40;;;;;;;1.85;1.02;;;;;;;;;;5414570;25;86201;-84
2024/04/08 02:59:07;;;;;;;3.75;1.20;;;;;;;;;;5423544;26;86000;-85
2024/04/08 03:01:35;;;;;;;2.55;1.23;;;;;;;;;;5423830;25;85161;-84
2024/04/08 03:04:02;;;;;;;2.08;1.10;;;;;;;;;;5424910;25;86793;-85
2024/04/08 03:06:29;;;;;;;2.45;1.13;;;;;;;;;;5427735;25;85816;-84
2024/04/08 03:09:00;;;;;;;1.98;1.10;;;;;;;;;;5414589;25;87819;-84
2024/04/08 03:11:32;;;;;;;2.20;1.10;;;;;;;;;;5422112;26;85148;-86
2024/04/08 03:14:10;;;;;;;2.55;1.15;;;;;;;;;;5425259;26;90726;-85
2024/04/08 03:16:37;;;;;;;1.60;1.02;;;;;;;;;;5426327;25;85989;-85
2024/04/08 03:19:08;;;;;;;1.80;1.00;;;;;;;;;;5424448;26;85567;-83
2024/04/08 03:21:44;;;;;;;2.03;0.98;;;;;;;;;;5394815;25;85925;-85
2024/04/08 03:24:30;;;;;;;2.63;1.10;;;;;;;;;;5399218;26;90647;-87
2024/04/08 03:26:57;;;;;;;2.15;1.30;;;;;;;;;;5424281;26;86250;-85
2024/04/08 03:29:24;;;;;;;3.50;1.27;;;;;;;;;;5422832;26;87249;-84
2024/04/08 03:32:09;;;;;;;2.65;1.15;;;;;;;;;;5422077;25;85415;-84
2024/04/08 03:34:42;;;;;;;1.83;1.00;;;;;;;;;;5425559;25;85736;-84
2024/04/08 03:37:25;;;;;;;2.17;1.20;;;;;;;;;;5397320;26;87657;-85
2024/04/08 03:40:01;;;;;;;2.75;1.15;;;;;;;;;;5393520;25;85648;-84
2024/04/08 03:42:38;;;;;;;2.28;1.00;;;;;;;;;;5422956;25;85943;-82
2024/04/08 03:45:14;;;;;;;2.60;1.20;;;;;;;;;;5438827;25;86425;-85
2024/04/08 03:47:41;;;;;;;2.08;1.13;;;;;;;;;;5427846;25;85665;-84
2024/04/08 03:50:09;;;;;;;3.17;1.20;;;;;;;;;;5499171;25;85277;-84
2024/04/08 03:52:36;;;;;;;2.17;1.10;;;;;;;;;;5468168;25;85733;-84
2024/04/08 03:55:09;;;;;;;3.70;1.30;;;;;;;;;;5441373;25;85707;-83
2024/04/08 03:57:37;;;;;;;3.47;1.30;;;;;;;;;;5433559;25;86888;-83
2024/04/08 04:00:23;;;;;;;1.88;1.00;;;;;;;;;;5416921;26;88052;-84
2024/04/08 04:02:56;;;;;;;1.98;1.20;;;;;;;;;;5411756;26;85249;-83
2024/04/08 04:05:44;;;;;;;1.58;1.20;;;;;;;;;;5382477;26;88323;-84
2024/04/08 04:08:12;;;;;;;2.50;1.17;;;;;;;;;;5431772;25;87175;-83
2024/04/08 04:11:11;;;;;;;2.30;1.17;;;;;;;;;;5379535;25;85539;-84
2024/04/08 04:13:38;;;;;;;2.15;1.10;;;;;;;;;;5389363;26;85805;-83
2024/04/08 04:16:06;;;;;;;1.38;1.00;;;;;;;;;;5387250;26;85704;-83
2024/04/08 04:18:37;;;;;;;1.50;1.00;;;;;;;;;;5387644;26;86318;-85
2024/04/08 04:21:07;;;;;;;1.88;1.10;;;;;;;;;;5385675;26;87637;-84
2024/04/08 04:23:34;;;;;;;1.55;0.88;;;;;;;;;;5422405;25;85669;-83
2024/04/08 04:26:04;;;;;;;2.55;1.20;;;;;;;;;;5422308;25;86869;-84
2024/04/08 04:28:34;;;;;;;2.28;1.10;;;;;;;;;;5422743;26;87217;-83
2024/04/08 04:31:09;;;;;;;2.63;1.20;;;;;;;;;;5394399;26;88840;-84
2024/04/08 04:33:36;;;;;;;1.90;1.10;;;;;;;;;;5423004;25;85263;-83
2024/04/08 04:36:03;;;;;;;2.28;1.05;;;;;;;;;;5416294;26;88129;-83
2024/04/08 04:38:31;;;;;;;2.65;1.10;;;;;;;;;;5355194;26;85844;-83
2024/04/08 04:41:16;;;;;;;2.72;1.20;;;;;;;;;;5356219;26;87689;-86
2024/04/08 04:43:43;;;;;;;2.17;1.20;;;;;;;;;;5355414;26;85710;-85
2024/04/08 04:46:10;;;;;;;2.83;0.88;;;;;;;;;;5386421;26;85249;-84
2024/04/08 04:48:37;;;;;;;2.08;1.10;;;;;;;;;;5386687;26;86389;-85
2024/04/08 04:51:04;;;;;;;2.03;1.10;;;;;;;;;;5391536;26;85462;-83
2024/04/08 04:53:31;;;;;;;2.08;1.10;;;;;;;;;;5424240;25;89117;-82
2024/04/08 04:55:57;;;;;;;2.25;1.10;;;;;;;;;;5421065;26;87845;-84
2024/04/08 04:58:24;;;;;;;3.03;1.38;;;;;;;;;;5420883;25;85739;-82
2024/04/08 05:00:51;;;;;;;2.20;1.10;;;;;;;;;;5426552;25;87596;-84
2024/04/08 05:03:21;;;;;;;2.35;1.20;;;;;;;;;;5414722;25;88327;-85
2024/04/08 05:05:53;;;;;;;2.20;1.20;;;;;;;;;;5419159;26;86401;-85
2024/04/08 05:08:21;;;;;;;2.30;1.20;;;;;;;;;;5422313;26;87255;-83
2024/04/08 05:10:48;;;;;;;2.38;1.25;;;;;;;;;;5425569;25;86891;-85
2024/04/08 05:13:16;;;;;;;2.33;1.20;;;;;;;;;;5433701;25;89878;-84
2024/04/08 05:16:02;;;;;;;1.95;1.30;;;;;;;;;;5420324;25;86161;-84
2024/04/08 05:18:30;;;;;;;2.83;1.30;;;;;;;;;;5419467;26;87936;-83
2024/04/08 05:21:21;;;;;;;2.03;1.10;;;;;;;;;;5419941;25;86729;-85
2024/04/08 05:23:55;;;;;;;1.30;1.02;;;;;;;;;;5362588;26;86759;-85
2024/04/08 05:26:26;;;;;;;2.40;1.10;;;;;;;;;;5359194;26;89108;-84
2024/04/08 05:28:53;;;;;;;1.70;1.20;;;;;;;;;;5384126;26;85743;-85
2024/04/08 05:31:36;;;;;;;2.20;1.30;;;;;;;;;;5354051;26;86850;-84
2024/04/08 05:34:13;;;;;;;1.70;1.25;;;;;;;;;;5357963;26;86702;-85
2024/04/08 05:36:46;;;;;;;1.50;1.05;;;;;;;;;;5396763;26;87253;-85
2024/04/08 05:39:19;;;;;;;2.85;1.30;;;;;;;;;;5386018;26;89533;-85
2024/04/08 05:41:47;;;;;;;2.33;1.23;;;;;;;;;;5356215;26;89921;-85
2024/04/08 05:44:14;;;;;;;2.20;1.10;;;;;;;;;;5387596;26;86787;-84
2024/04/08 05:46:42;;;;;;;2.05;1.15;;;;;;;;;;5386360;26;89590;-84
2024/04/08 05:49:09;;;;;;;3.40;1.30;;;;;;;;;;5360655;26;89694;-84
2024/04/08 05:51:36;;;;;;;2.65;1.10;;;;;;;;;;5420868;26;86362;-86
2024/04/08 05:54:03;;;;;;;1.55;1.00;;;;;;;;;;5423922;26;86978;-84
2024/04/08 05:56:30;;;;;;;1.50;1.05;;;;;;;;;;5411867;26;86600;-86
2024/04/08 05:59:06;;;;;;;2.28;1.20;;;;;;;;;;5450495;25;86605;-85
2024/04/08 06:01:45;;;;;;;2.50;1.27;;;;;;;;;;5368545;25;92165;-85
2024/04/08 06:04:12;;;;;;;2.67;1.25;;;;;;;;;;5390800;25;88733;-85
2024/04/08 06:06:48;;;;;;;2.17;1.10;;;;;;;;;;5440590;25;86573;-86
2024/04/08 06:09:39;;;;;;;2.05;1.10;;;;;;;;;;5390918;26;89153;-85
2024/04/08 06:12:07;;;;;;;1.98;1.08;;;;;;;;;;5417557;25;90529;-85
2024/04/08 06:14:48;;;;;;;2.42;1.15;;;;;;;;;;5399189;25;86397;-85
2024/04/08 06:17:15;;;;;;;1.00;0.90;;;;;;;;;;5434048;25;87112;-85
2024/04/08 06:19:42;;;;;;;2.67;1.20;;;;;;;;;;5419717;25;88785;-84
2024/04/08 06:22:09;;;;;;;2.67;1.20;;;;;;;;;;5391689;26;87998;-84
2024/04/08 06:24:36;;;;;;;2.20;1.20;;;;;;;;;;5421152;26;87568;-84
2024/04/08 06:27:19;;;;;;;;;;;;;;;;;;5422496;25;87912;-85
2024/04/08 06:33:08;;;;;;;1.52;1.20;;;;;;;;;;5408569;25;86635;-85
2024/04/08 06:35:46;;;;;;;2.92;1.17;;;;;;;;;;5398525;25;88727;-84
2024/04/08 06:38:20;;;;;;;2.35;1.20;;;;;;;;;;5462423;25;86761;-85
2024/04/08 06:41:02;;;;;;;2.33;1.20;;;;;;;;;;5468252;25;86689;-84
2024/04/08 06:43:29;;;;;;;1.30;1.00;;;;;;;;;;5495114;25;86991;-85
2024/04/08 06:45:57;;;;;;;1.60;1.08;;;;;;;;;;5452682;25;92220;-85
2024/04/08 06:48:23;;;;;;;;;;;;;;;;;;5449685;25;87517;-84
2024/04/08 06:50:51;;;;;;;1.45;1.00;;;;;;;;;;5465946;25;86874;-87
2024/04/08 06:53:18;;;;;;;1.88;1.00;;;;;;;;;;5434184;25;86945;-86
2024/04/08 06:55:45;;;;;;;2.35;1.10;;;;;;;;;;5422102;25;89485;-86
2024/04/08 06:58:14;;;;;;;1.65;1.23;;;;;;;;;;5421045;26;86838;-86
2024/04/08 07:00:45;;;;;;;2.17;1.25;;;;;;;;;;5411946;26;87513;-86
2024/04/08 07:03:25;;;;;;;2.80;1.23;;;;;;;;;;5419731;26;88694;-86
2024/04/08 07:05:54;;;;;;;2.42;1.10;;;;;;;;;;5425831;25;88352;-85
2024/04/08 07:08:21;;;;;;;2.35;1.10;;;;;;;;;;5394768;25;87543;-87
2024/04/08 07:10:48;;;;;;;3.03;1.30;;;;;;;;;;5428093;26;85759;-86
2024/04/08 07:13:17;;;;;;;2.30;1.23;;;;;;;;;;5427904;26;86219;-87
2024/04/08 07:16:03;;;;;;;1.83;1.20;;;;;;;;;;5359606;26;87995;-86
2024/04/08 07:18:39;;;;;;;2.17;1.20;;;;;;;;;;5392340;26;87266;-86
2024/04/08 07:21:11;;;;;;;2.42;1.20;;;;;;;;;;5393831;26;87953;-86
2024/04/08 07:23:38;;;;;;;2.03;1.20;;;;;;;;;;5392505;26;86096;-85
2024/04/08 07:26:05;;;;;;;2.35;1.10;;;;;;;;;;5423283;26;89510;-86
2024/04/08 07:28:37;;;;;;;2.72;1.30;;;;;;;;;;5373620;26;88010;-86
2024/04/08 07:31:04;;;;;;;2.83;1.30;;;;;;;;;;5393686;26;86853;-87
2024/04/08 07:33:31;;;;;;;2.88;1.30;;;;;;;;;;5389750;26;86754;-86
2024/04/08 07:36:05;;;;;;;3.42;1.30;;;;;;;;;;5402382;26;86051;-87
2024/04/08 07:38:33;;;;;;;3.50;1.27;;;;;;;;;;5395437;26;90282;-86
2024/04/08 07:41:23;;;;;;;1.70;1.10;;;;;;;;;;5425012;26;86410;-86
2024/04/08 07:43:51;;;;;;;2.13;1.17;;;;;;;;;;5424379;25;87757;-86
2024/04/08 07:46:18;;;;;;;2.40;1.20;;;;;;;;;;5424769;26;89011;-86
2024/04/08 07:48:45;;;;;;;2.28;1.40;;;;;;;;;;5461657;25;86260;-87
2024/04/08 07:51:12;;;;;;;2.95;1.33;;;;;;;;;;5427987;25;86993;-84
2024/04/08 07:53:39;;;;;;;;;;;;;;;;;;5424170;25;86393;-87
2024/04/08 07:56:06;;;;;;;2.50;1.45;;;;;;;;;;5415302;25;88701;-85
2024/04/08 07:58:36;;;;;;;2.15;1.30;;;;;;;;;;5409497;25;86867;-86
2024/04/08 08:01:36;;;;;;;2.42;1.20;;;;;;;;;;5362890;26;87722;-85
2024/04/08 08:04:15;;;;;;;3.38;1.40;;;;;;;;;;5407342;25;86176;-85
2024/04/08 08:06:55;;;;;;;3.13;1.10;;;;;;;;;;5417978;25;86630;-86
2024/04/08 08:09:32;;;;;;;2.88;1.20;;;;;;;;;;5388797;25;87275;-85
2024/04/08 08:12:07;;;;;;;1.75;1.10;;;;;;;;;;5420790;26;89247;-86
2024/04/08 08:14:37;;;;;;;2.30;1.30;;;;;;;;;;5422320;25;86497;-86
2024/04/08 08:17:36;;;;;;;2.53;1.10;;;;;;;;;;5394676;26;87372;-86
2024/04/08 08:20:24;;;;;;;1.83;1.25;;;;;;;;;;5356130;26;93189;-86
2024/04/08 08:23:07;;;;;;;2.35;1.30;;;;;;;;;;5356327;26;86238;-87
2024/04/08 08:25:35;;;;;;;2.30;1.10;;;;;;;;;;5376032;26;86422;-86
2024/04/08 08:28:02;;;;;;;1.83;1.10;;;;;;;;;;5385500;26;90546;-87
2024/04/08 08:30:42;;;;;;;2.50;1.00;;;;;;;;;;5383126;26;87550;-87
2024/04/08 08:33:09;;;;;;;2.35;1.30;;;;;;;;;;5388043;25;89684;-85
2024/04/08 08:35:36;;;;;;;2.30;1.20;;;;;;;;;;5401267;25;89982;-84
2024/04/08 08:38:03;;;;;;;2.05;1.20;;;;;;;;;;5438648;25;87999;-85
2024/04/08 08:40:32;;;;;;;2.25;1.13;;;;;;;;;;5432412;25;88859;-85
2024/04/08 08:43:24;;;;;;;1.80;1.00;;;;;;;;;;5392943;25;89292;-86
2024/04/08 08:45:53;;;;;;;2.35;1.20;;;;;;;;;;5389718;25;88308;-86
2024/04/08 08:48:20;;;;;;;2.72;1.17;;;;;;;;;;5416381;25;86750;-85
2024/04/08 08:50:47;;;;;;;1.90;1.10;;;;;;;;;;5438292;25;86342;-85
2024/04/08 08:53:15;;;;;;;2.67;1.23;;;;;;;;;;5419678;26;86304;-85
2024/04/08 08:55:58;;;;;;;2.45;1.10;;;;;;;;;;5387473;25;93045;-86
2024/04/08 08:58:50;;;;;;;2.72;1.15;;;;;;;;;;5391983;26;88269;-86
2024/04/08 09:01:47;;;;;;;2.28;1.10;;;;;;;;;;5398243;25;87682;-86
2024/04/08 09:04:20;;;;;;;;;;;;;;;;;;5419431;26;88052;-85
2024/04/08 09:06:56;;;;;;;1.73;1.10;;;;;;;;;;5422321;25;87115;-86
2024/04/08 09:09:23;;;;;;;3.13;1.00;;;;;;;;;;5398314;25;88595;-85
2024/04/08 09:12:01;;;;;;;3.13;1.17;;;;;;;;;;5394387;26;92327;-86
2024/04/08 09:14:31;;;;;;;2.00;1.30;;;;;;;;;;5426632;25;86674;-85
2024/04/08 09:17:10;;;;;;;3.15;1.20;;;;;;;;;;5368141;26;89111;-87
2024/04/08 09:19:49;;;;;;;2.78;1.00;;;;;;;;;;5422172;25;85649;-85
2024/04/08 09:22:18;;;;;;;2.28;1.20;;;;;;;;;;5393102;26;86620;-86
2024/04/08 09:24:45;;;;;;;2.55;1.38;;;;;;;;;;5395326;26;89381;-86
2024/04/08 09:27:12;;;;;;;3.33;1.30;;;;;;;;;;5421942;26;86901;-86
2024/04/08 09:29:39;;;;;;;2.65;1.10;;;;;;;;;;5421932;25;87498;-87
2024/04/08 09:32:08;;;;;;;3.05;1.35;;;;;;;;;;5424011;25;86409;-86
2024/04/08 09:34:35;;;;;;;2.42;1.17;;;;;;;;;;5392080;26;89202;-86
2024/04/08 09:37:03;;;;;;;2.17;1.25;;;;;;;;;;5422503;26;89363;-84
2024/04/08 09:39:31;;;;;;;1.63;1.10;;;;;;;;;;5428506;25;86819;-86
2024/04/08 09:41:59;;;;;;;2.63;1.10;;;;;;;;;;5421095;26;90889;-86
2024/04/08 09:44:30;;;;;;;1.42;1.10;;;;;;;;;;5402122;25;88721;-87
2024/04/08 09:47:03;;;;;;;3.08;1.13;;;;;;;;;;5438836;25;86564;-86
2024/04/08 09:49:30;;;;;;;2.22;1.10;;;;;;;;;;5413824;26;89618;-86
2024/04/08 09:52:24;;;;;;;2.35;1.20;;;;;;;;;;5422657;26;92606;-85
2024/04/08 09:55:01;;;;;;;2.67;1.27;;;;;;;;;;5387036;26;88109;-86
2024/04/08 09:57:29;;;;;;;3.13;1.40;;;;;;;;;;5387837;26;89195;-88
2024/04/08 09:59:57;;;;;;;2.35;1.20;;;;;;;;;;5363619;26;92584;-86
2024/04/08 10:02:39;;;;;;;2.35;1.20;;;;;;;;;;5396831;26;87718;-86
2024/04/08 10:05:11;;;;;;;2.28;1.20;;;;;;;;;;5317772;26;89546;-86
2024/04/08 10:07:40;;;;;;;2.50;1.30;;;;;;;;;;5369992;26;86516;-85
2024/04/08 10:10:12;;;;;;;2.35;1.17;;;;;;;;;;5356968;26;86553;-87
2024/04/08 10:12:57;;;;;;;3.30;1.30;;;;;;;;;;5323945;26;87159;-85
2024/04/08 10:15:48;;;;;;;1.90;1.20;;;;;;;;;;5340568;26;88741;-88
2024/04/08 10:18:18;;;;;;;3.00;1.20;;;;;;;;;;5352336;26;90663;-86
2024/04/08 10:20:46;;;;;;;3.65;1.33;;;;;;;;;;5342599;26;88186;-86
2024/04/08 10:23:30;;;;;;;2.97;1.20;;;;;;;;;;5347818;26;94259;-85
2024/04/08 10:26:02;;;;;;;2.67;1.20;;;;;;;;;;5393009;26;92706;-86
2024/04/08 10:28:30;;;;;;;2.65;1.13;;;;;;;;;;5406483;26;86651;-85
2024/04/08 10:31:24;;;;;;;1.70;1.17;;;;;;;;;;5393576;26;88167;-86
2024/04/08 10:34:16;;;;;;;1.80;1.10;;;;;;;;;;5315026;26;90960;-87
2024/04/08 10:36:56;;;;;;;2.38;1.20;;;;;;;;;;5388515;26;88121;-86
2024/04/08 10:39:33;;;;;;;2.90;1.00;;;;;;;;;;5328796;26;88539;-85
2024/04/08 10:42:13;;;;;;;2.88;1.25;;;;;;;;;;5358036;26;91138;-87
2024/04/08 10:44:41;;;;;;;2.45;1.40;;;;;;;;;;5318045;26;88606;-86
2024/04/08 10:47:21;;;;;;;4.22;1.40;;;;;;;;;;5311713;26;86802;-86
2024/04/08 10:50:11;;;;;;;2.78;1.38;;;;;;;;;;5357768;26;118781;-87
2024/04/08 10:52:52;;;;;;;1.90;1.10;;;;;;;;;;5347414;26;88327;-85
2024/04/08 10:55:42;;;;;;;3.45;1.42;;;;;;;;;;5362637;26;88990;-86
2024/04/08 10:58:28;;;;;;;3.05;1.33;;;;;;;;;;5360201;26;86721;-87
2024/04/08 11:01:15;;;;;;;2.95;1.40;;;;;;;;;;5398159;26;86388;-86
2024/04/08 11:03:56;;;;;;;2.13;1.27;;;;;;;;;;5398266;26;87201;-85
2024/04/08 11:06:40;;;;;;;2.92;1.30;;;;;;;;;;5357106;26;86569;-84
2024/04/08 11:09:29;;;;;;;2.45;1.45;;;;;;;;;;5353911;26;86220;-86
2024/04/08 11:11:57;;;;;;;2.55;1.30;;;;;;;;;;5299944;26;92189;-88
2024/04/08 11:14:49;;;;;;;2.88;1.23;;;;;;;;;;5313545;26;87111;-86
2024/04/08 11:17:25;;;;;;;3.20;1.40;;;;;;;;;;5330214;26;86037;-86
2024/04/08 11:20:04;;;;;;;1.70;1.08;;;;;;;;;;5310530;26;88703;-87
2024/04/08 11:23:02;;;;;;;2.78;1.30;;;;;;;;;;5277594;26;88988;-86
2024/04/08 11:25:30;;;;;;;2.60;1.40;;;;;;;;;;5299456;26;88623;-86
2024/04/08 11:27:58;;;;;;;2.47;1.40;;;;;;;;;;5283260;26;93464;-86
2024/04/08 11:30:26;;;;;;;1.67;0.95;;;;;;;;;;5304247;26;91793;-86
2024/04/08 11:32:54;;;;;;;2.63;1.20;;;;;;;;;;5316786;26;85996;-86
2024/04/08 11:35:25;;;;;;;2.28;1.20;;;;;;;;;;5282527;26;88249;-86
2024/04/08 11:37:54;;;;;;;1.98;1.20;;;;;;;;;;5353325;26;89030;-86
2024/04/08 11:40:22;;;;;;;2.08;1.30;;;;;;;;;;5356805;26;86032;-86
2024/04/08 11:42:52;;;;;;;3.30;1.35;;;;;;;;;;5332832;26;88847;-85
2024/04/08 11:45:22;;;;;;;1.73;1.17;;;;;;;;;;5351887;26;87398;-85
2024/04/08 11:47:49;;;;;;;;;;;;;;;;;;5359596;26;88790;-86
2024/04/08 11:50:19;;;;;;;2.05;1.25;;;;;;;;;;5348712;26;86469;-87
2024/04/08 11:52:56;;;;;;;2.88;1.20;;;;;;;;;;5328183;26;86167;-85
2024/04/08 11:55:24;;;;;;;2.40;1.20;;;;;;;;;;5356982;26;89287;-86
2024/04/08 11:57:58;;;;;;;2.78;1.33;;;;;;;;;;5346482;26;87037;-85
2024/04/08 12:00:26;;;;;;;2.47;1.50;;;;;;;;;;5374816;26;88530;-86
2024/04/08 12:02:55;;;;;;;2.92;1.30;;;;;;;;;;5387191;26;87278;-86
2024/04/08 12:05:49;;;;;;;1.67;1.20;;;;;;;;;;5380773;26;86797;-87
2024/04/08 12:08:23;;;;;;;2.47;1.38;;;;;;;;;;5382233;26;88551;-87
2024/04/08 12:10:55;;;;;;;2.35;1.60;;;;;;;;;;5383869;26;86649;-85
2024/04/08 12:13:26;;;;;;;2.65;1.50;;;;;;;;;;5358843;26;87716;-85
2024/04/08 12:15:53;;;;;;;4.57;1.73;;;;;;;;;;5350939;26;87138;-85
2024/04/08 12:18:25;;;;;;;2.80;1.98;;;;;;;;;;5350229;26;89427;-86
2024/04/08 12:21:24;;;;;;;2.22;1.45;;;;;;;;;;5321387;26;88965;-87
2024/04/08 12:23:54;;;;;;;2.78;1.60;;;;;;;;;;5320066;26;86338;-87
2024/04/08 12:26:46;;;;;;;4.07;1.92;;;;;;;;;;5326703;26;87446;-85
2024/04/08 12:29:27;;;;;;;2.83;1.48;;;;;;;;;;5322840;26;89076;-85
2024/04/08 12:31:58;;;;;;;3.50;1.85;;;;;;;;;;5349230;26;86896;-85
2024/04/08 12:34:30;;;;;;;2.70;1.73;;;;;;;;;;5319645;26;87557;-88
2024/04/08 12:36:57;;;;;;;4.28;1.90;;;;;;;;;;5348186;26;86870;-87
2024/04/08 12:39:26;;;;;;;3.13;1.67;;;;;;;;;;5347468;26;88694;-86
2024/04/08 12:42:03;;;;;;;3.20;1.80;;;;;;;;;;5317413;26;90633;-87
2024/04/08 12:44:57;;;;;;;3.90;1.88;;;;;;;;;;5348576;26;89473;-87
2024/04/08 12:47:40;;;;;;;3.58;2.10;;;;;;;;;;5248235;26;87410;-84
2024/04/08 12:50:15;;;;;;;3.65;1.83;;;;;;;;;;5311241;26;86507;-85
2024/04/08 12:52:42;;;;;;;2.90;1.65;;;;;;;;;;5312844;26;88654;-85
2024/04/08 12:55:25;;;;;;;3.72;1.80;;;;;;;;;;5295475;26;87060;-87
2024/04/08 12:57:54;;;;;;;3.30;1.67;;;;;;;;;;5276346;26;87428;-85
2024/04/08 13:00:28;;;;;;;2.83;1.67;;;;;;;;;;5244654;26;89637;-86
2024/04/08 13:03:02;;;;;;;4.15;2.00;;;;;;;;;;5256997;26;87549;-85
2024/04/08 13:05:35;;;;;;;3.72;1.75;;;;;;;;;;5276733;26;90023;-85
2024/04/08 13:08:09;;;;;;;2.92;1.50;;;;;;;;;;5273102;26;87049;-86
2024/04/08 13:10:41;;;;;;;2.55;1.63;;;;;;;;;;5283314;26;90322;-86
2024/04/08 13:13:15;;;;;;;3.00;1.50;;;;;;;;;;5381059;26;87006;-85
2024/04/08 13:16:16;;;;;;;4.25;2.20;;;;;;;;;;5295814;26;91036;-86
2024/04/08 13:18:53;;;;;;;3.92;2.17;;;;;;;;;;5348634;26;89219;-86
2024/04/08 13:21:45;;;;;;;;;;;;;;;;;;;;;
2024/04/08 13:24:30;;;;;;;5.53;2.80;;;;;;;;;;5376903;26;91791;-87
2024/04/08 13:27:24;;;;;;;5.30;2.65;;;;;;;;;;5320658;26;87327;-87
2024/04/08 13:30:05;;;;;;;4.25;2.30;;;;;;;;;;5308864;26;92869;-87
2024/04/08 13:32:42;;;;;;;5.35;2.60;;;;;;;;;;5317677;26;87524;-84
2024/04/08 13:35:11;;;;;;;5.35;2.30;;;;;;;;;;5360662;26;86707;-87
2024/04/08 13:37:57;;;;;;;4.15;2.10;;;;;;;;;;5367319;26;88200;-86
2024/04/08 13:40:46;;;;;;;6.45;2.42;;;;;;;;;;5321577;26;88576;-87
2024/04/08 13:43:39;;;;;;;5.45;2.90;;;;;;;;;;5259565;26;86792;-86
2024/04/08 13:46:22;;;;;;;4.82;2.58;;;;;;;;;;5332995;26;86721;-86
2024/04/08 13:48:52;;;;;;;5.35;2.65;;;;;;;;;;5367516;26;88021;-85
2024/04/08 13:51:25;;;;;;;3.92;2.20;;;;;;;;;;5356440;26;87466;-86
2024/04/08 13:54:04;;;;;;;3.95;2.25;;;;;;;;;;5350205;26;87771;-86
2024/04/08 13:56:58;;;;;;;;;;;;;;;;;;5351688;26;89086;-85
2024/04/08 13:59:25;;;;;;;4.53;2.05;;;;;;;;;;5343011;26;87024;-86
2024/04/08 14:01:52;;;;;;;4.78;2.55;;;;;;;;;;5310366;26;86852;-85
2024/04/08 14:04:20;;;;;;;4.00;2.08;;;;;;;;;;5311934;26;89207;-87
2024/04/08 14:06:51;;;;;;;4.60;2.30;;;;;;;;;;5314750;26;85934;-87
2024/04/08 14:09:19;;;;;;;3.63;2.00;;;;;;;;;;5279243;26;88517;-86
2024/04/08 14:11:46;;;;;;;;;;;;;;;;;;5280724;26;89465;-86
2024/04/08 14:14:13;;;;;;;2.70;1.80;;;;;;;;;;5311890;26;87451;-86
2024/04/08 14:16:43;;;;;;;3.80;2.00;;;;;;;;;;5316817;26;90310;-86
2024/04/08 14:19:13;;;;;;;3.47;1.83;;;;;;;;;;5302975;26;89275;-87
2024/04/08 14:21:53;;;;;;;3.63;1.90;;;;;;;;;;5294653;26;87509;-86
2024/04/08 14:24:19;;;;;;;3.83;1.90;;;;;;;;;;5289656;26;86817;-86
2024/04/08 14:26:47;;;;;;;2.53;1.60;;;;;;;;;;5285249;26;88749;-86
2024/04/08 14:29:14;;;;;;;3.60;1.90;;;;;;;;;;5282352;26;87277;-87
2024/04/08 14:31:52;;;;;;;2.78;1.73;;;;;;;;;;5289253;26;88171;-86
2024/04/08 14:34:19;;;;;;;3.92;1.73;;;;;;;;;;5339250;26;88212;-87
2024/04/08 14:36:53;;;;;;;2.22;1.58;;;;;;;;;;5339848;26;89858;-86
2024/04/08 14:39:40;;;;;;;3.55;1.85;;;;;;;;;;5316694;26;90337;-86
2024/04/08 14:42:14;;;;;;;;;;;;;;;;;;5350376;26;86284;-86
2024/04/08 14:45:03;;;;;;;3.45;1.88;;;;;;;;;;5341530;26;88126;-87
2024/04/08 14:48:02;;;;;;;3.42;1.85;;;;;;;;;;5343935;26;110759;-87
2024/04/08 14:50:34;;;;;;;3.72;1.60;;;;;;;;;;5330039;26;87137;-86
2024/04/08 14:53:01;;;;;;;3.00;1.60;;;;;;;;;;5328967;26;88864;-87
2024/04/08 14:58:53;;;;;;;3.75;1.70;;;;;;;;;;5383403;26;90147;-87
2024/04/08 15:01:23;;;;;;;3.28;1.70;;;;;;;;;;5375120;26;86846;-86
2024/04/08 15:03:53;;;;;;;2.55;1.40;;;;;;;;;;5356056;26;86755;-85
2024/04/08 15:10:04;;;;;;;2.97;1.60;;;;;;;;;;5322896;26;94139;-87
2024/04/08 15:12:35;;;;;;;3.53;1.50;;;;;;;;;;5374414;26;86931;-87
2024/04/08 15:15:25;;;;;;;3.60;1.60;;;;;;;;;;5298429;26;89355;-87
2024/04/08 15:18:25;;;;;;;2.50;1.50;;;;;;;;;;5340633;26;89525;-86
2024/04/08 15:21:12;;;;;;;3.50;1.60;;;;;;;;;;5325883;26;86597;-85
2024/04/08 15:24:14;;;;;;;3.55;1.80;;;;;;;;;;5310843;26;89509;-86
2024/04/08 15:26:51;;;;;;;;;;;;;;;;;;5371066;26;86008;-86
2024/04/08 15:29:52;;;;;;;2.88;1.60;;;;;;;;;;5309110;26;88010;-87
2024/04/08 15:32:20;;;;;;;2.50;1.60;;;;;;;;;;5310533;26;89422;-86
2024/04/08 15:34:51;;;;;;;2.10;1.35;;;;;;;;;;5335946;26;89343;-86
2024/04/08 15:40:24;;;;;;;2.30;1.42;;;;;;;;;;5349650;26;90619;-86
2024/04/08 15:43:24;;;;;;;2.90;1.58;;;;;;;;;;5348481;26;87014;-86
2024/04/08 15:46:32;;;;;;;2.50;1.60;;;;;;;;;;5366584;26;121737;-87
2024/04/08 15:49:26;;;;;;;2.65;1.35;;;;;;;;;;5352609;26;86477;-88
2024/04/08 15:52:20;;;;;;;3.88;1.60;;;;;;;;;;5300819;26;91567;-88